sensor_id;sensor_type;location;lat;lon;timestamp;P1;durP1;ratioP1;P2;durP2;ratioP2
63965;SDS011;50151;52.030;5.350;2024-01-10T00:00:46;5.20;;;2.80;;
63965;SDS011;50151;52.030;5.350;2024-01-10T00:03:13;6.57;;;3.10;;
63965;SDS011;50151;52.030;5.350;2024-01-10T00:05:39;4.15;;;2.40;;
63965;SDS011;50151;52.030;5.350;2024-01-10T00:08:06;5.75;;;2.72;;
63965;SDS011;50151;52.030;5.350;2024-01-10T00:10:33;3.30;;;2.22;;
63965;SDS011;50151;52.030;5.350;2024-01-10T00:13:00;8.57;;;3.13;;
63965;SDS011;50151;52.030;5.350;2024-01-10T00:15:27;5.38;;;2.90;;
63965;SDS011;50151;52.030;5.350;2024-01-10T00:17:53;3.63;;;2.47;;
63965;SDS011;50151;52.030;5.350;2024-01-10T00:20:20;4.15;;;2.47;;
63965;SDS011;50151;52.030;5.350;2024-01-10T00:22:47;5.80;;;2.70;;
63965;SDS011;50151;52.030;5.350;2024-01-10T00:25:14;4.05;;;2.22;;
63965;SDS011;50151;52.030;5.350;2024-01-10T00:27:41;4.90;;;2.40;;
63965;SDS011;50151;52.030;5.350;2024-01-10T00:30:08;3.92;;;2.05;;
63965;SDS011;50151;52.030;5.350;2024-01-10T00:32:35;5.57;;;2.65;;
63965;SDS011;50151;52.030;5.350;2024-01-10T00:35:02;4.20;;;2.63;;
63965;SDS011;50151;52.030;5.350;2024-01-10T00:37:29;3.47;;;2.10;;
63965;SDS011;50151;52.030;5.350;2024-01-10T00:39:56;3.75;;;1.92;;
63965;SDS011;50151;52.030;5.350;2024-01-10T00:42:22;4.72;;;2.90;;
63965;SDS011;50151;52.030;5.350;2024-01-10T00:44:49;3.92;;;2.50;;
63965;SDS011;50151;52.030;5.350;2024-01-10T00:47:16;4.63;;;2.80;;
63965;SDS011;50151;52.030;5.350;2024-01-10T00:49:43;4.53;;;2.83;;
63965;SDS011;50151;52.030;5.350;2024-01-10T00:52:09;5.35;;;3.10;;
63965;SDS011;50151;52.030;5.350;2024-01-10T00:54:36;5.35;;;2.50;;
63965;SDS011;50151;52.030;5.350;2024-01-10T00:57:03;6.93;;;2.95;;
63965;SDS011;50151;52.030;5.350;2024-01-10T00:59:30;5.15;;;2.95;;
63965;SDS011;50151;52.030;5.350;2024-01-10T01:01:56;4.95;;;2.60;;
63965;SDS011;50151;52.030;5.350;2024-01-10T01:04:23;5.18;;;3.03;;
63965;SDS011;50151;52.030;5.350;2024-01-10T01:06:50;5.60;;;2.83;;
63965;SDS011;50151;52.030;5.350;2024-01-10T01:09:16;5.60;;;2.75;;
63965;SDS011;50151;52.030;5.350;2024-01-10T01:11:44;5.80;;;2.78;;
63965;SDS011;50151;52.030;5.350;2024-01-10T01:14:11;3.38;;;2.08;;
63965;SDS011;50151;52.030;5.350;2024-01-10T01:16:37;5.50;;;2.67;;
63965;SDS011;50151;52.030;5.350;2024-01-10T01:19:04;6.30;;;3.15;;
63965;SDS011;50151;52.030;5.350;2024-01-10T01:21:31;3.53;;;2.42;;
63965;SDS011;50151;52.030;5.350;2024-01-10T01:23:58;3.97;;;2.53;;
63965;SDS011;50151;52.030;5.350;2024-01-10T01:26:24;6.45;;;3.40;;
63965;SDS011;50151;52.030;5.350;2024-01-10T01:28:51;6.30;;;2.85;;
63965;SDS011;50151;52.030;5.350;2024-01-10T01:31:18;6.55;;;2.83;;
63965;SDS011;50151;52.030;5.350;2024-01-10T01:33:45;1.98;;;1.33;;
63965;SDS011;50151;52.030;5.350;2024-01-10T01:36:12;7.28;;;3.40;;
63965;SDS011;50151;52.030;5.350;2024-01-10T01:38:38;1.73;;;1.08;;
63965;SDS011;50151;52.030;5.350;2024-01-10T01:41:05;8.13;;;3.40;;
63965;SDS011;50151;52.030;5.350;2024-01-10T01:43:32;6.65;;;3.13;;
63965;SDS011;50151;52.030;5.350;2024-01-10T01:45:59;6.03;;;3.20;;
63965;SDS011;50151;52.030;5.350;2024-01-10T01:48:26;9.32;;;1.58;;
63965;SDS011;50151;52.030;5.350;2024-01-10T01:50:57;4.82;;;2.78;;
63965;SDS011;50151;52.030;5.350;2024-01-10T01:53:26;6.47;;;3.40;;
63965;SDS011;50151;52.030;5.350;2024-01-10T01:55:55;4.75;;;2.78;;
63965;SDS011;50151;52.030;5.350;2024-01-10T01:58:22;4.18;;;2.65;;
63965;SDS011;50151;52.030;5.350;2024-01-10T02:00:49;3.17;;;2.38;;
63965;SDS011;50151;52.030;5.350;2024-01-10T02:03:17;5.55;;;2.28;;
63965;SDS011;50151;52.030;5.350;2024-01-10T02:05:45;6.43;;;2.80;;
63965;SDS011;50151;52.030;5.350;2024-01-10T02:08:12;4.85;;;2.72;;
63965;SDS011;50151;52.030;5.350;2024-01-10T02:10:39;5.65;;;2.85;;
63965;SDS011;50151;52.030;5.350;2024-01-10T02:13:06;6.40;;;3.40;;
63965;SDS011;50151;52.030;5.350;2024-01-10T02:15:35;2.90;;;1.40;;
63965;SDS011;50151;52.030;5.350;2024-01-10T02:18:02;5.10;;;2.70;;
63965;SDS011;50151;52.030;5.350;2024-01-10T02:20:29;5.15;;;2.95;;
63965;SDS011;50151;52.030;5.350;2024-01-10T02:22:56;6.00;;;2.50;;
63965;SDS011;50151;52.030;5.350;2024-01-10T02:25:23;4.88;;;3.05;;
63965;SDS011;50151;52.030;5.350;2024-01-10T02:27:49;4.38;;;2.50;;
63965;SDS011;50151;52.030;5.350;2024-01-10T02:30:16;4.90;;;2.83;;
63965;SDS011;50151;52.030;5.350;2024-01-10T02:32:43;5.05;;;2.03;;
63965;SDS011;50151;52.030;5.350;2024-01-10T02:35:10;4.05;;;2.40;;
63965;SDS011;50151;52.030;5.350;2024-01-10T02:37:37;8.55;;;3.25;;
63965;SDS011;50151;52.030;5.350;2024-01-10T02:40:04;6.00;;;3.50;;
63965;SDS011;50151;52.030;5.350;2024-01-10T02:42:31;6.20;;;3.20;;
63965;SDS011;50151;52.030;5.350;2024-01-10T02:44:58;5.90;;;3.15;;
63965;SDS011;50151;52.030;5.350;2024-01-10T02:47:25;3.33;;;2.42;;
63965;SDS011;50151;52.030;5.350;2024-01-10T02:49:52;5.07;;;3.22;;
63965;SDS011;50151;52.030;5.350;2024-01-10T02:52:19;5.10;;;2.80;;
63965;SDS011;50151;52.030;5.350;2024-01-10T02:54:46;8.20;;;3.20;;
63965;SDS011;50151;52.030;5.350;2024-01-10T02:57:12;5.28;;;3.13;;
63965;SDS011;50151;52.030;5.350;2024-01-10T02:59:39;5.00;;;2.78;;
63965;SDS011;50151;52.030;5.350;2024-01-10T03:02:06;6.68;;;3.17;;
63965;SDS011;50151;52.030;5.350;2024-01-10T03:04:33;5.45;;;3.40;;
63965;SDS011;50151;52.030;5.350;2024-01-10T03:07:00;4.05;;;2.78;;
63965;SDS011;50151;52.030;5.350;2024-01-10T03:09:26;5.72;;;3.35;;
63965;SDS011;50151;52.030;5.350;2024-01-10T03:11:53;6.85;;;2.92;;
63965;SDS011;50151;52.030;5.350;2024-01-10T03:14:20;5.55;;;3.58;;
63965;SDS011;50151;52.030;5.350;2024-01-10T03:16:48;5.13;;;2.78;;
63965;SDS011;50151;52.030;5.350;2024-01-10T03:19:15;7.28;;;2.90;;
63965;SDS011;50151;52.030;5.350;2024-01-10T03:21:42;6.47;;;3.35;;
63965;SDS011;50151;52.030;5.350;2024-01-10T03:24:08;7.90;;;3.30;;
63965;SDS011;50151;52.030;5.350;2024-01-10T03:26:35;6.75;;;3.33;;
63965;SDS011;50151;52.030;5.350;2024-01-10T03:29:02;6.15;;;3.42;;
63965;SDS011;50151;52.030;5.350;2024-01-10T03:31:29;5.88;;;2.72;;
63965;SDS011;50151;52.030;5.350;2024-01-10T03:33:57;1.35;;;1.25;;
63965;SDS011;50151;52.030;5.350;2024-01-10T03:36:27;5.10;;;3.20;;
63965;SDS011;50151;52.030;5.350;2024-01-10T03:38:54;4.47;;;3.00;;
63965;SDS011;50151;52.030;5.350;2024-01-10T03:41:20;7.00;;;3.13;;
63965;SDS011;50151;52.030;5.350;2024-01-10T03:43:47;4.38;;;2.78;;
63965;SDS011;50151;52.030;5.350;2024-01-10T03:46:15;5.95;;;3.25;;
63965;SDS011;50151;52.030;5.350;2024-01-10T03:48:42;6.10;;;3.20;;
63965;SDS011;50151;52.030;5.350;2024-01-10T03:51:16;6.00;;;3.42;;
63965;SDS011;50151;52.030;5.350;2024-01-10T03:53:43;5.15;;;2.70;;
63965;SDS011;50151;52.030;5.350;2024-01-10T03:56:13;5.30;;;3.65;;
63965;SDS011;50151;52.030;5.350;2024-01-10T03:58:40;5.95;;;2.47;;
63965;SDS011;50151;52.030;5.350;2024-01-10T04:01:07;7.68;;;3.47;;
63965;SDS011;50151;52.030;5.350;2024-01-10T04:03:35;5.72;;;3.33;;
63965;SDS011;50151;52.030;5.350;2024-01-10T04:06:02;7.07;;;4.03;;
63965;SDS011;50151;52.030;5.350;2024-01-10T04:08:29;8.95;;;3.35;;
63965;SDS011;50151;52.030;5.350;2024-01-10T04:10:56;4.43;;;2.95;;
63965;SDS011;50151;52.030;5.350;2024-01-10T04:13:24;6.25;;;3.55;;
63965;SDS011;50151;52.030;5.350;2024-01-10T04:15:51;4.30;;;2.95;;
63965;SDS011;50151;52.030;5.350;2024-01-10T04:18:17;7.07;;;3.20;;
63965;SDS011;50151;52.030;5.350;2024-01-10T04:20:44;5.80;;;3.08;;
63965;SDS011;50151;52.030;5.350;2024-01-10T04:23:11;3.65;;;2.05;;
63965;SDS011;50151;52.030;5.350;2024-01-10T04:25:38;5.40;;;3.05;;
63965;SDS011;50151;52.030;5.350;2024-01-10T04:28:05;5.43;;;3.00;;
63965;SDS011;50151;52.030;5.350;2024-01-10T04:30:32;6.13;;;3.22;;
63965;SDS011;50151;52.030;5.350;2024-01-10T04:32:59;4.85;;;2.35;;
63965;SDS011;50151;52.030;5.350;2024-01-10T04:35:26;5.90;;;3.38;;
63965;SDS011;50151;52.030;5.350;2024-01-10T04:37:52;5.47;;;3.15;;
63965;SDS011;50151;52.030;5.350;2024-01-10T04:40:19;9.38;;;3.50;;
63965;SDS011;50151;52.030;5.350;2024-01-10T04:42:46;9.00;;;3.95;;
63965;SDS011;50151;52.030;5.350;2024-01-10T04:45:13;5.60;;;3.10;;
63965;SDS011;50151;52.030;5.350;2024-01-10T04:47:39;5.95;;;3.47;;
63965;SDS011;50151;52.030;5.350;2024-01-10T04:50:06;7.15;;;3.67;;
63965;SDS011;50151;52.030;5.350;2024-01-10T04:52:39;6.28;;;3.83;;
63965;SDS011;50151;52.030;5.350;2024-01-10T04:55:06;7.80;;;3.15;;
63965;SDS011;50151;52.030;5.350;2024-01-10T04:57:34;4.10;;;2.35;;
63965;SDS011;50151;52.030;5.350;2024-01-10T05:00:02;6.75;;;3.58;;
63965;SDS011;50151;52.030;5.350;2024-01-10T05:02:30;6.15;;;3.25;;
63965;SDS011;50151;52.030;5.350;2024-01-10T05:04:58;6.95;;;4.03;;
63965;SDS011;50151;52.030;5.350;2024-01-10T05:07:25;6.53;;;3.60;;
63965;SDS011;50151;52.030;5.350;2024-01-10T05:09:52;6.38;;;3.65;;
63965;SDS011;50151;52.030;5.350;2024-01-10T05:12:18;6.85;;;3.72;;
63965;SDS011;50151;52.030;5.350;2024-01-10T05:14:45;6.95;;;3.22;;
63965;SDS011;50151;52.030;5.350;2024-01-10T05:17:12;8.02;;;3.92;;
63965;SDS011;50151;52.030;5.350;2024-01-10T05:19:39;6.25;;;2.88;;
63965;SDS011;50151;52.030;5.350;2024-01-10T05:22:06;5.03;;;3.47;;
63965;SDS011;50151;52.030;5.350;2024-01-10T05:24:33;6.28;;;3.42;;
63965;SDS011;50151;52.030;5.350;2024-01-10T05:27:02;3.83;;;2.78;;
63965;SDS011;50151;52.030;5.350;2024-01-10T05:29:29;5.50;;;3.22;;
63965;SDS011;50151;52.030;5.350;2024-01-10T05:31:55;6.15;;;2.80;;
63965;SDS011;50151;52.030;5.350;2024-01-10T05:34:22;4.47;;;2.88;;
63965;SDS011;50151;52.030;5.350;2024-01-10T05:36:49;4.30;;;2.40;;
63965;SDS011;50151;52.030;5.350;2024-01-10T05:39:16;3.30;;;2.28;;
63965;SDS011;50151;52.030;5.350;2024-01-10T05:41:43;6.53;;;3.35;;
63965;SDS011;50151;52.030;5.350;2024-01-10T05:44:12;3.03;;;1.63;;
63965;SDS011;50151;52.030;5.350;2024-01-10T05:46:40;8.20;;;3.78;;
63965;SDS011;50151;52.030;5.350;2024-01-10T05:49:08;6.88;;;3.13;;
63965;SDS011;50151;52.030;5.350;2024-01-10T05:51:35;8.05;;;3.35;;
63965;SDS011;50151;52.030;5.350;2024-01-10T05:54:04;8.40;;;3.25;;
63965;SDS011;50151;52.030;5.350;2024-01-10T05:56:30;7.28;;;3.80;;
63965;SDS011;50151;52.030;5.350;2024-01-10T05:58:57;7.57;;;3.10;;
63965;SDS011;50151;52.030;5.350;2024-01-10T06:01:24;9.10;;;4.00;;
63965;SDS011;50151;52.030;5.350;2024-01-10T06:03:51;4.78;;;3.20;;
63965;SDS011;50151;52.030;5.350;2024-01-10T06:06:18;5.45;;;2.58;;
63965;SDS011;50151;52.030;5.350;2024-01-10T06:08:45;5.28;;;3.15;;
63965;SDS011;50151;52.030;5.350;2024-01-10T06:11:11;4.75;;;2.50;;
63965;SDS011;50151;52.030;5.350;2024-01-10T06:13:38;6.00;;;3.90;;
63965;SDS011;50151;52.030;5.350;2024-01-10T06:16:19;4.38;;;2.72;;
63965;SDS011;50151;52.030;5.350;2024-01-10T06:18:46;5.03;;;2.83;;
63965;SDS011;50151;52.030;5.350;2024-01-10T06:21:13;5.32;;;2.90;;
63965;SDS011;50151;52.030;5.350;2024-01-10T06:23:40;5.13;;;3.05;;
63965;SDS011;50151;52.030;5.350;2024-01-10T06:26:07;6.20;;;3.53;;
63965;SDS011;50151;52.030;5.350;2024-01-10T06:28:34;10.55;;;4.22;;
63965;SDS011;50151;52.030;5.350;2024-01-10T06:31:01;6.97;;;3.70;;
63965;SDS011;50151;52.030;5.350;2024-01-10T06:33:28;6.07;;;3.55;;
63965;SDS011;50151;52.030;5.350;2024-01-10T06:35:55;6.13;;;3.20;;
63965;SDS011;50151;52.030;5.350;2024-01-10T06:38:23;6.50;;;3.40;;
63965;SDS011;50151;52.030;5.350;2024-01-10T06:40:50;8.18;;;3.28;;
63965;SDS011;50151;52.030;5.350;2024-01-10T06:43:17;4.70;;;2.22;;
63965;SDS011;50151;52.030;5.350;2024-01-10T06:45:44;7.00;;;3.83;;
63965;SDS011;50151;52.030;5.350;2024-01-10T06:48:12;6.25;;;3.75;;
63965;SDS011;50151;52.030;5.350;2024-01-10T06:50:39;8.07;;;3.80;;
63965;SDS011;50151;52.030;5.350;2024-01-10T06:53:06;8.55;;;4.05;;
63965;SDS011;50151;52.030;5.350;2024-01-10T06:55:34;12.07;;;4.07;;
63965;SDS011;50151;52.030;5.350;2024-01-10T06:58:01;8.35;;;3.83;;
63965;SDS011;50151;52.030;5.350;2024-01-10T07:00:29;5.93;;;3.58;;
63965;SDS011;50151;52.030;5.350;2024-01-10T07:02:56;9.32;;;4.43;;
63965;SDS011;50151;52.030;5.350;2024-01-10T07:05:23;7.13;;;4.15;;
63965;SDS011;50151;52.030;5.350;2024-01-10T07:07:51;7.07;;;4.15;;
63965;SDS011;50151;52.030;5.350;2024-01-10T07:10:20;8.18;;;4.45;;
63965;SDS011;50151;52.030;5.350;2024-01-10T07:12:54;10.60;;;4.38;;
63965;SDS011;50151;52.030;5.350;2024-01-10T07:15:21;6.90;;;4.00;;
63965;SDS011;50151;52.030;5.350;2024-01-10T07:17:48;6.50;;;3.40;;
63965;SDS011;50151;52.030;5.350;2024-01-10T07:20:15;8.35;;;4.78;;
63965;SDS011;50151;52.030;5.350;2024-01-10T07:22:43;8.95;;;4.88;;
63965;SDS011;50151;52.030;5.350;2024-01-10T07:25:12;10.18;;;4.63;;
63965;SDS011;50151;52.030;5.350;2024-01-10T07:27:43;12.23;;;4.65;;
63965;SDS011;50151;52.030;5.350;2024-01-10T07:30:10;10.40;;;4.22;;
63965;SDS011;50151;52.030;5.350;2024-01-10T07:32:41;7.35;;;4.43;;
63965;SDS011;50151;52.030;5.350;2024-01-10T07:35:12;7.97;;;4.55;;
63965;SDS011;50151;52.030;5.350;2024-01-10T07:37:42;8.20;;;4.38;;
63965;SDS011;50151;52.030;5.350;2024-01-10T07:40:10;9.93;;;5.03;;
63965;SDS011;50151;52.030;5.350;2024-01-10T07:42:37;10.60;;;4.63;;
63965;SDS011;50151;52.030;5.350;2024-01-10T07:45:06;8.38;;;4.57;;
63965;SDS011;50151;52.030;5.350;2024-01-10T07:47:34;8.57;;;4.47;;
63965;SDS011;50151;52.030;5.350;2024-01-10T07:50:08;7.38;;;4.60;;
63965;SDS011;50151;52.030;5.350;2024-01-10T07:52:36;7.03;;;3.55;;
63965;SDS011;50151;52.030;5.350;2024-01-10T07:55:04;11.18;;;4.35;;
63965;SDS011;50151;52.030;5.350;2024-01-10T07:57:31;9.32;;;4.45;;
63965;SDS011;50151;52.030;5.350;2024-01-10T08:00:03;7.60;;;4.45;;
63965;SDS011;50151;52.030;5.350;2024-01-10T08:02:31;9.20;;;4.80;;
63965;SDS011;50151;52.030;5.350;2024-01-10T08:05:00;8.15;;;4.45;;
63965;SDS011;50151;52.030;5.350;2024-01-10T08:07:32;10.15;;;4.72;;
63965;SDS011;50151;52.030;5.350;2024-01-10T08:10:00;12.10;;;4.43;;
63965;SDS011;50151;52.030;5.350;2024-01-10T08:12:27;9.20;;;4.00;;
63965;SDS011;50151;52.030;5.350;2024-01-10T08:14:54;5.75;;;3.58;;
63965;SDS011;50151;52.030;5.350;2024-01-10T08:17:21;4.18;;;2.40;;
63965;SDS011;50151;52.030;5.350;2024-01-10T08:19:49;7.43;;;4.13;;
63965;SDS011;50151;52.030;5.350;2024-01-10T08:22:18;9.05;;;4.50;;
63965;SDS011;50151;52.030;5.350;2024-01-10T08:24:52;11.45;;;5.10;;
63965;SDS011;50151;52.030;5.350;2024-01-10T08:27:19;7.63;;;3.78;;
63965;SDS011;50151;52.030;5.350;2024-01-10T08:29:46;5.93;;;3.13;;
63965;SDS011;50151;52.030;5.350;2024-01-10T08:32:13;12.52;;;5.43;;
63965;SDS011;50151;52.030;5.350;2024-01-10T08:34:41;8.65;;;4.53;;
63965;SDS011;50151;52.030;5.350;2024-01-10T08:37:08;7.82;;;4.55;;
63965;SDS011;50151;52.030;5.350;2024-01-10T08:39:35;8.32;;;4.45;;
63965;SDS011;50151;52.030;5.350;2024-01-10T08:42:02;10.52;;;4.88;;
63965;SDS011;50151;52.030;5.350;2024-01-10T08:44:29;8.13;;;4.38;;
63965;SDS011;50151;52.030;5.350;2024-01-10T08:46:56;11.52;;;4.85;;
63965;SDS011;50151;52.030;5.350;2024-01-10T08:49:24;6.50;;;2.35;;
63965;SDS011;50151;52.030;5.350;2024-01-10T08:51:51;9.77;;;4.65;;
63965;SDS011;50151;52.030;5.350;2024-01-10T08:54:19;13.25;;;4.60;;
63965;SDS011;50151;52.030;5.350;2024-01-10T08:56:48;11.27;;;5.25;;
63965;SDS011;50151;52.030;5.350;2024-01-10T08:59:15;7.38;;;4.82;;
63965;SDS011;50151;52.030;5.350;2024-01-10T09:01:43;9.38;;;5.20;;
63965;SDS011;50151;52.030;5.350;2024-01-10T09:04:10;9.00;;;4.70;;
63965;SDS011;50151;52.030;5.350;2024-01-10T09:06:37;5.78;;;3.33;;
63965;SDS011;50151;52.030;5.350;2024-01-10T09:09:04;9.82;;;5.22;;
63965;SDS011;50151;52.030;5.350;2024-01-10T09:11:31;10.45;;;4.95;;
63965;SDS011;50151;52.030;5.350;2024-01-10T09:14:02;10.73;;;5.05;;
63965;SDS011;50151;52.030;5.350;2024-01-10T09:16:29;9.85;;;4.10;;
63965;SDS011;50151;52.030;5.350;2024-01-10T09:18:56;11.43;;;5.85;;
63965;SDS011;50151;52.030;5.350;2024-01-10T09:21:26;9.55;;;4.75;;
63965;SDS011;50151;52.030;5.350;2024-01-10T09:23:53;7.68;;;4.63;;
63965;SDS011;50151;52.030;5.350;2024-01-10T09:26:22;7.85;;;4.43;;
63965;SDS011;50151;52.030;5.350;2024-01-10T09:28:50;7.30;;;3.88;;
63965;SDS011;50151;52.030;5.350;2024-01-10T09:31:17;11.27;;;5.28;;
63965;SDS011;50151;52.030;5.350;2024-01-10T09:33:44;10.13;;;5.28;;
63965;SDS011;50151;52.030;5.350;2024-01-10T09:36:11;9.57;;;3.83;;
63965;SDS011;50151;52.030;5.350;2024-01-10T09:38:38;10.82;;;4.95;;
63965;SDS011;50151;52.030;5.350;2024-01-10T09:41:05;9.55;;;4.97;;
63965;SDS011;50151;52.030;5.350;2024-01-10T09:43:32;18.05;;;4.10;;
63965;SDS011;50151;52.030;5.350;2024-01-10T09:46:02;7.65;;;4.35;;
63965;SDS011;50151;52.030;5.350;2024-01-10T09:48:31;4.75;;;3.03;;
63965;SDS011;50151;52.030;5.350;2024-01-10T09:50:59;11.15;;;5.43;;
63965;SDS011;50151;52.030;5.350;2024-01-10T09:53:26;11.60;;;5.60;;
63965;SDS011;50151;52.030;5.350;2024-01-10T09:55:56;9.82;;;5.25;;
63965;SDS011;50151;52.030;5.350;2024-01-10T09:58:23;9.80;;;4.38;;
63965;SDS011;50151;52.030;5.350;2024-01-10T10:00:54;10.32;;;4.95;;
63965;SDS011;50151;52.030;5.350;2024-01-10T10:03:21;11.65;;;4.97;;
63965;SDS011;50151;52.030;5.350;2024-01-10T10:05:48;8.73;;;4.72;;
63965;SDS011;50151;52.030;5.350;2024-01-10T10:08:15;10.52;;;4.40;;
63965;SDS011;50151;52.030;5.350;2024-01-10T10:10:49;12.13;;;5.78;;
63965;SDS011;50151;52.030;5.350;2024-01-10T10:13:29;10.57;;;4.68;;
63965;SDS011;50151;52.030;5.350;2024-01-10T10:15:57;8.07;;;4.50;;
63965;SDS011;50151;52.030;5.350;2024-01-10T10:18:29;9.90;;;5.85;;
63965;SDS011;50151;52.030;5.350;2024-01-10T10:21:06;10.65;;;5.40;;
63965;SDS011;50151;52.030;5.350;2024-01-10T10:23:44;10.75;;;5.10;;
63965;SDS011;50151;52.030;5.350;2024-01-10T10:26:25;12.18;;;4.65;;
63965;SDS011;50151;52.030;5.350;2024-01-10T10:28:53;10.40;;;4.53;;
63965;SDS011;50151;52.030;5.350;2024-01-10T10:31:20;8.32;;;4.13;;
63965;SDS011;50151;52.030;5.350;2024-01-10T10:33:48;6.88;;;3.50;;
63965;SDS011;50151;52.030;5.350;2024-01-10T10:36:19;8.73;;;4.75;;
63965;SDS011;50151;52.030;5.350;2024-01-10T10:38:49;8.75;;;4.55;;
63965;SDS011;50151;52.030;5.350;2024-01-10T10:41:16;11.32;;;5.07;;
63965;SDS011;50151;52.030;5.350;2024-01-10T10:43:45;12.05;;;5.07;;
63965;SDS011;50151;52.030;5.350;2024-01-10T10:46:14;13.18;;;4.10;;
63965;SDS011;50151;52.030;5.350;2024-01-10T10:48:42;7.75;;;4.13;;
63965;SDS011;50151;52.030;5.350;2024-01-10T10:51:23;9.68;;;5.28;;
63965;SDS011;50151;52.030;5.350;2024-01-10T10:53:55;8.48;;;3.97;;
63965;SDS011;50151;52.030;5.350;2024-01-10T10:56:23;15.55;;;5.85;;
63965;SDS011;50151;52.030;5.350;2024-01-10T10:58:51;8.93;;;4.70;;
63965;SDS011;50151;52.030;5.350;2024-01-10T11:01:20;10.98;;;5.47;;
63965;SDS011;50151;52.030;5.350;2024-01-10T11:03:48;8.30;;;4.53;;
63965;SDS011;50151;52.030;5.350;2024-01-10T11:06:15;10.48;;;5.50;;
63965;SDS011;50151;52.030;5.350;2024-01-10T11:08:49;12.27;;;5.53;;
63965;SDS011;50151;52.030;5.350;2024-01-10T11:14:25;7.95;;;4.70;;
63965;SDS011;50151;52.030;5.350;2024-01-10T11:17:08;4.85;;;2.88;;
63965;SDS011;50151;52.030;5.350;2024-01-10T11:25:16;8.77;;;4.32;;
63965;SDS011;50151;52.030;5.350;2024-01-10T11:27:44;8.82;;;4.95;;
63965;SDS011;50151;52.030;5.350;2024-01-10T11:30:13;14.13;;;4.30;;
63965;SDS011;50151;52.030;5.350;2024-01-10T11:33:00;11.55;;;5.35;;
63965;SDS011;50151;52.030;5.350;2024-01-10T11:35:28;9.52;;;5.05;;
63965;SDS011;50151;52.030;5.350;2024-01-10T11:37:59;8.30;;;4.60;;
63965;SDS011;50151;52.030;5.350;2024-01-10T11:40:45;5.60;;;2.78;;
63965;SDS011;50151;52.030;5.350;2024-01-10T11:43:16;9.93;;;5.15;;
63965;SDS011;50151;52.030;5.350;2024-01-10T11:45:55;12.55;;;5.65;;
63965;SDS011;50151;52.030;5.350;2024-01-10T11:48:25;11.32;;;5.70;;
63965;SDS011;50151;52.030;5.350;2024-01-10T11:50:54;9.70;;;5.47;;
63965;SDS011;50151;52.030;5.350;2024-01-10T11:53:55;10.30;;;4.82;;
63965;SDS011;50151;52.030;5.350;2024-01-10T11:56:17;10.48;;;5.30;;
63965;SDS011;50151;52.030;5.350;2024-01-10T11:59:02;10.60;;;5.68;;
63965;SDS011;50151;52.030;5.350;2024-01-10T12:01:30;9.77;;;4.90;;
63965;SDS011;50151;52.030;5.350;2024-01-10T12:03:58;8.38;;;4.43;;
63965;SDS011;50151;52.030;5.350;2024-01-10T12:06:43;14.93;;;5.60;;
63965;SDS011;50151;52.030;5.350;2024-01-10T12:09:12;9.27;;;5.32;;
63965;SDS011;50151;52.030;5.350;2024-01-10T12:11:40;9.77;;;5.47;;
63965;SDS011;50151;52.030;5.350;2024-01-10T12:14:08;11.15;;;4.40;;
63965;SDS011;50151;52.030;5.350;2024-01-10T12:16:36;10.75;;;5.82;;
63965;SDS011;50151;52.030;5.350;2024-01-10T12:19:03;18.20;;;6.13;;
63965;SDS011;50151;52.030;5.350;2024-01-10T12:21:31;10.77;;;5.50;;
63965;SDS011;50151;52.030;5.350;2024-01-10T12:23:58;6.50;;;3.63;;
63965;SDS011;50151;52.030;5.350;2024-01-10T12:26:26;13.27;;;6.18;;
63965;SDS011;50151;52.030;5.350;2024-01-10T12:28:53;7.35;;;4.70;;
63965;SDS011;50151;52.030;5.350;2024-01-10T12:31:21;5.22;;;3.22;;
63965;SDS011;50151;52.030;5.350;2024-01-10T12:33:49;12.95;;;6.35;;
63965;SDS011;50151;52.030;5.350;2024-01-10T12:36:17;11.85;;;5.85;;
63965;SDS011;50151;52.030;5.350;2024-01-10T12:38:46;9.20;;;4.90;;
63965;SDS011;50151;52.030;5.350;2024-01-10T12:41:14;4.63;;;2.50;;
63965;SDS011;50151;52.030;5.350;2024-01-10T12:43:42;10.85;;;5.53;;
63965;SDS011;50151;52.030;5.350;2024-01-10T12:46:12;9.55;;;4.97;;
63965;SDS011;50151;52.030;5.350;2024-01-10T12:48:42;9.07;;;5.45;;
63965;SDS011;50151;52.030;5.350;2024-01-10T12:51:10;17.65;;;6.05;;
63965;SDS011;50151;52.030;5.350;2024-01-10T12:53:39;13.40;;;5.97;;
63965;SDS011;50151;52.030;5.350;2024-01-10T12:56:08;11.35;;;4.60;;
63965;SDS011;50151;52.030;5.350;2024-01-10T12:58:41;10.95;;;5.70;;
63965;SDS011;50151;52.030;5.350;2024-01-10T13:01:08;13.20;;;7.03;;
63965;SDS011;50151;52.030;5.350;2024-01-10T13:03:36;6.90;;;3.75;;
63965;SDS011;50151;52.030;5.350;2024-01-10T13:06:03;14.25;;;6.43;;
63965;SDS011;50151;52.030;5.350;2024-01-10T13:08:31;13.80;;;6.53;;
63965;SDS011;50151;52.030;5.350;2024-01-10T13:10:59;11.77;;;5.93;;
63965;SDS011;50151;52.030;5.350;2024-01-10T13:13:35;14.35;;;6.18;;
63965;SDS011;50151;52.030;5.350;2024-01-10T13:16:02;10.02;;;5.45;;
63965;SDS011;50151;52.030;5.350;2024-01-10T13:18:29;13.75;;;6.05;;
63965;SDS011;50151;52.030;5.350;2024-01-10T13:20:57;5.13;;;2.63;;
63965;SDS011;50151;52.030;5.350;2024-01-10T13:23:24;11.88;;;5.70;;
63965;SDS011;50151;52.030;5.350;2024-01-10T13:25:51;18.70;;;7.05;;
63965;SDS011;50151;52.030;5.350;2024-01-10T13:28:18;11.20;;;6.22;;
63965;SDS011;50151;52.030;5.350;2024-01-10T13:30:45;14.15;;;6.50;;
63965;SDS011;50151;52.030;5.350;2024-01-10T13:33:12;12.07;;;5.43;;
63965;SDS011;50151;52.030;5.350;2024-01-10T13:35:40;10.45;;;5.20;;
63965;SDS011;50151;52.030;5.350;2024-01-10T13:38:07;11.80;;;5.90;;
63965;SDS011;50151;52.030;5.350;2024-01-10T13:40:36;13.70;;;5.93;;
63965;SDS011;50151;52.030;5.350;2024-01-10T13:43:04;14.20;;;5.63;;
63965;SDS011;50151;52.030;5.350;2024-01-10T13:45:31;11.68;;;5.85;;
63965;SDS011;50151;52.030;5.350;2024-01-10T13:47:58;12.88;;;6.13;;
63965;SDS011;50151;52.030;5.350;2024-01-10T13:50:26;10.43;;;5.22;;
63965;SDS011;50151;52.030;5.350;2024-01-10T13:52:54;17.98;;;5.63;;
63965;SDS011;50151;52.030;5.350;2024-01-10T13:55:21;12.48;;;6.22;;
63965;SDS011;50151;52.030;5.350;2024-01-10T13:57:50;12.15;;;6.50;;
63965;SDS011;50151;52.030;5.350;2024-01-10T14:00:19;12.73;;;6.03;;
63965;SDS011;50151;52.030;5.350;2024-01-10T14:02:46;11.93;;;6.05;;
63965;SDS011;50151;52.030;5.350;2024-01-10T14:05:14;10.25;;;5.95;;
63965;SDS011;50151;52.030;5.350;2024-01-10T14:07:41;12.10;;;6.30;;
63965;SDS011;50151;52.030;5.350;2024-01-10T14:10:11;10.75;;;6.35;;
63965;SDS011;50151;52.030;5.350;2024-01-10T14:12:39;13.05;;;6.38;;
63965;SDS011;50151;52.030;5.350;2024-01-10T14:15:06;14.05;;;6.78;;
63965;SDS011;50151;52.030;5.350;2024-01-10T14:17:33;11.68;;;6.18;;
63965;SDS011;50151;52.030;5.350;2024-01-10T14:19:59;12.13;;;6.47;;
63965;SDS011;50151;52.030;5.350;2024-01-10T14:22:26;12.25;;;6.25;;
63965;SDS011;50151;52.030;5.350;2024-01-10T14:24:58;11.48;;;6.88;;
63965;SDS011;50151;52.030;5.350;2024-01-10T14:27:28;10.80;;;5.88;;
63965;SDS011;50151;52.030;5.350;2024-01-10T14:29:55;11.45;;;6.03;;
63965;SDS011;50151;52.030;5.350;2024-01-10T14:32:22;8.55;;;4.28;;
63965;SDS011;50151;52.030;5.350;2024-01-10T14:34:49;11.65;;;6.22;;
63965;SDS011;50151;52.030;5.350;2024-01-10T14:37:16;12.93;;;6.30;;
63965;SDS011;50151;52.030;5.350;2024-01-10T14:39:43;14.60;;;6.20;;
63965;SDS011;50151;52.030;5.350;2024-01-10T14:42:10;17.30;;;6.13;;
63965;SDS011;50151;52.030;5.350;2024-01-10T14:44:37;13.13;;;6.70;;
63965;SDS011;50151;52.030;5.350;2024-01-10T14:47:04;11.48;;;6.55;;
63965;SDS011;50151;52.030;5.350;2024-01-10T14:49:37;15.30;;;6.80;;
63965;SDS011;50151;52.030;5.350;2024-01-10T14:52:05;14.73;;;6.60;;
63965;SDS011;50151;52.030;5.350;2024-01-10T14:54:32;13.35;;;6.72;;
63965;SDS011;50151;52.030;5.350;2024-01-10T14:56:59;12.95;;;6.95;;